createdAt,value
2022-11-16T00:00:08.449Z,88.11
2022-11-16T00:00:28.521Z,88.07
2022-11-16T00:00:48.578Z,88.22
2022-11-16T00:01:08.653Z,88.39
2022-11-16T00:01:28.748Z,88.34
2022-11-16T00:01:48.841Z,88.14
2022-11-16T00:02:08.932Z,87.9
2022-11-16T00:02:28.946Z,87.94
2022-11-16T00:02:48.958Z,88.06
2022-11-16T00:03:09.027Z,87.95
2022-11-16T00:03:29.189Z,87.9
2022-11-16T00:03:49.147Z,87.9
2022-11-16T00:04:09.233Z,87.99
2022-11-16T00:04:29.286Z,87.89
2022-11-16T00:04:49.350Z,87.9
2022-11-16T00:05:09.433Z,88.16
2022-11-16T00:05:29.490Z,88.27
2022-11-16T00:05:49.538Z,88.43
2022-11-16T00:06:09.600Z,88.62
2022-11-16T00:06:29.669Z,88.66
2022-11-16T00:06:49.745Z,88.76
2022-11-16T00:07:09.841Z,88.82
2022-11-16T00:07:29.879Z,88.8
2022-11-16T00:07:49.875Z,88.77
2022-11-16T00:08:09.958Z,88.66
2022-11-16T00:08:30.363Z,88.59
2022-11-16T00:08:50.088Z,88.58
2022-11-16T00:09:10.127Z,88.58
2022-11-16T00:09:30.184Z,88.57
2022-11-16T00:09:50.247Z,88.61
2022-11-16T00:10:10.320Z,88.61
2022-11-16T00:10:30.369Z,88.71
2022-11-16T00:10:50.471Z,88.75
2022-11-16T00:11:10.547Z,88.76
2022-11-16T00:11:30.601Z,88.74
2022-11-16T00:11:50.655Z,88.67
2022-11-16T00:12:10.743Z,88.72
2022-11-16T00:12:30.801Z,88.9
2022-11-16T00:12:50.842Z,89.23
2022-11-16T00:13:10.892Z,89.35
2022-11-16T00:13:31.044Z,89.46
2022-11-16T00:13:51.002Z,89.57
2022-11-16T00:14:11.073Z,89.65
2022-11-16T00:14:31.125Z,89.73
2022-11-16T00:14:51.163Z,89.94
2022-11-16T00:15:11.213Z,90.06
2022-11-16T00:15:31.275Z,90.15
2022-11-16T00:15:51.321Z,90.21
2022-11-16T00:16:11.401Z,90.25
2022-11-16T00:16:31.456Z,90.24
2022-11-16T00:16:51.522Z,90.2
2022-11-16T00:17:11.603Z,90.06
2022-11-16T00:17:31.654Z,89.97
2022-11-16T00:17:51.773Z,89.89
2022-11-16T00:18:11.827Z,89.83
2022-11-16T00:18:32.377Z,89.75
2022-11-16T00:18:51.959Z,89.98
2022-11-16T00:19:12.059Z,90.08
2022-11-16T00:19:32.151Z,90.09
2022-11-16T00:19:52.217Z,89.85
2022-11-16T00:20:12.299Z,89.9
2022-11-16T00:20:32.354Z,89.93
2022-11-16T00:20:52.394Z,90.05
2022-11-16T00:21:12.455Z,89.96
2022-11-16T00:21:32.500Z,89.94
2022-11-16T00:21:52.593Z,89.97
2022-11-16T00:22:12.665Z,89.95
2022-11-16T00:22:32.754Z,90.14
2022-11-16T00:22:52.839Z,90.48
2022-11-16T00:23:12.919Z,90.59
2022-11-16T00:23:33.079Z,90.71
2022-11-16T00:23:53.047Z,90.77
2022-11-16T00:24:13.144Z,90.84
2022-11-16T00:24:33.216Z,90.85
2022-11-16T00:24:53.281Z,90.79
2022-11-16T00:25:13.361Z,90.81
2022-11-16T00:25:33.400Z,90.82
2022-11-16T00:25:53.455Z,90.83
2022-11-16T00:26:13.532Z,90.88
2022-11-16T00:26:33.594Z,90.89
2022-11-16T00:26:53.645Z,90.82
2022-11-16T00:27:13.712Z,90.77
2022-11-16T00:27:33.782Z,90.6
2022-11-16T00:27:53.884Z,90.62
2022-11-16T00:28:13.942Z,90.49
2022-11-16T00:28:34.565Z,90.47
2022-11-16T00:28:54.076Z,90.57
2022-11-16T00:29:14.148Z,90.54
2022-11-16T00:29:34.217Z,90.41
2022-11-16T00:29:54.341Z,90.48
2022-11-16T00:30:14.418Z,90.56
2022-11-16T00:30:34.493Z,90.57
2022-11-16T00:30:54.586Z,90.61
2022-11-16T00:31:14.674Z,90.7
2022-11-16T00:31:34.732Z,90.87
2022-11-16T00:31:54.838Z,90.92
2022-11-16T00:32:14.896Z,90.94
2022-11-16T00:32:34.978Z,90.78
2022-11-16T00:32:55.050Z,90.73
2022-11-16T00:33:15.117Z,90.71
2022-11-16T00:33:35.335Z,90.74
2022-11-16T00:33:55.338Z,90.79
2022-11-16T00:34:15.410Z,90.89
2022-11-16T00:34:35.509Z,90.92
2022-11-16T00:34:55.611Z,90.93
2022-11-16T00:35:15.639Z,91.02
2022-11-16T00:35:35.734Z,91.23
2022-11-16T00:35:55.794Z,91.46
2022-11-16T00:36:15.859Z,91.61
2022-11-16T00:36:35.928Z,91.69
2022-11-16T00:36:56.054Z,91.69
2022-11-16T00:37:16.076Z,91.68
2022-11-16T00:37:36.159Z,91.74
2022-11-16T00:37:56.226Z,91.68
2022-11-16T00:38:16.290Z,91.71
2022-11-16T00:38:36.721Z,91.79
2022-11-16T00:38:56.409Z,91.75
2022-11-16T00:39:16.489Z,91.7
2022-11-16T00:39:36.554Z,91.77
2022-11-16T00:39:56.645Z,91.82
2022-11-16T00:40:16.706Z,91.91
2022-11-16T00:40:36.758Z,92.05
2022-11-16T00:40:56.813Z,92.1
2022-11-16T00:41:16.872Z,92.12
2022-11-16T00:41:36.928Z,92.18
2022-11-16T00:41:56.955Z,92.28
2022-11-16T00:42:17.046Z,92.32
2022-11-16T00:42:37.101Z,92.32
2022-11-16T00:42:57.167Z,92.33
2022-11-16T00:43:17.223Z,92.31
2022-11-16T00:43:37.399Z,92.32
2022-11-16T00:43:57.358Z,92.42
2022-11-16T00:44:17.405Z,92.57
2022-11-16T00:44:37.495Z,92.74
2022-11-16T00:44:57.571Z,92.84
2022-11-16T00:45:17.653Z,92.96
2022-11-16T00:45:37.712Z,92.99
2022-11-16T00:45:57.773Z,93.05
2022-11-16T00:46:17.845Z,93.11
2022-11-16T00:46:37.896Z,93.17
2022-11-16T00:46:57.990Z,93.27
2022-11-16T00:47:18.054Z,93.33
2022-11-16T00:47:38.122Z,93.4
2022-11-16T00:48:00.609Z,93.36
2022-11-16T00:48:18.247Z,93.27
2022-11-16T00:48:38.405Z,93.22
2022-11-16T00:48:58.375Z,93.17
2022-11-16T00:49:18.412Z,93.11
2022-11-16T00:49:38.513Z,93.04
2022-11-16T00:49:58.601Z,93
2022-11-16T00:50:18.671Z,93
2022-11-16T00:50:38.726Z,92.94
2022-11-16T00:50:58.791Z,92.9
2022-11-16T00:51:18.869Z,92.9
2022-11-16T00:51:38.926Z,92.91
2022-11-16T00:51:58.999Z,92.88
2022-11-16T00:52:19.027Z,92.95
2022-11-16T00:52:39.089Z,93.1
2022-11-16T00:52:59.141Z,93.26
2022-11-16T00:53:19.222Z,93.44
2022-11-16T00:53:39.506Z,93.58
2022-11-16T00:53:59.357Z,93.69
2022-11-16T00:54:19.446Z,93.71
2022-11-16T00:54:39.487Z,93.75
2022-11-16T00:54:59.558Z,93.79
2022-11-16T00:55:19.651Z,93.86
2022-11-16T00:55:39.724Z,93.89
2022-11-16T00:55:59.782Z,93.96
2022-11-16T00:56:19.840Z,94.01
2022-11-16T00:56:39.878Z,94.03
2022-11-16T00:56:59.973Z,94.06
2022-11-16T00:57:20.038Z,94.05
2022-11-16T00:57:40.111Z,94.01
2022-11-16T00:58:00.195Z,93.97
2022-11-16T00:58:20.251Z,93.93
2022-11-16T00:58:40.467Z,93.9
2022-11-16T00:59:00.390Z,93.91
2022-11-16T00:59:20.451Z,93.92
2022-11-16T00:59:40.500Z,94
2022-11-16T01:00:00.563Z,93.99
2022-11-16T01:00:20.635Z,94.05
2022-11-16T01:00:40.676Z,94.08
2022-11-16T01:01:00.836Z,94.06
2022-11-16T01:01:20.895Z,94.1
2022-11-16T01:01:41.009Z,94.13
2022-11-16T01:02:00.950Z,94.15
2022-11-16T01:02:20.989Z,94.13
2022-11-16T01:02:41.042Z,94.2
2022-11-16T01:03:01.085Z,94.24
2022-11-16T01:03:21.131Z,94.29
2022-11-16T01:03:41.313Z,94.31
2022-11-16T01:04:01.255Z,94.33
2022-11-16T01:04:21.348Z,94.31
2022-11-16T01:04:41.445Z,94.32
2022-11-16T01:05:01.515Z,94.27
2022-11-16T01:05:21.578Z,94.22
2022-11-16T01:05:41.640Z,94.25
2022-11-16T01:06:01.716Z,94.26
2022-11-16T01:06:21.798Z,94.28
2022-11-16T01:06:41.827Z,94.26
2022-11-16T01:07:01.966Z,94.23
2022-11-16T01:07:22.052Z,94.24
2022-11-16T01:07:42.047Z,94.28
2022-11-16T01:08:02.100Z,94.32
2022-11-16T01:08:22.167Z,94.3
2022-11-16T01:08:42.408Z,94.31
2022-11-16T01:09:02.307Z,94.4
2022-11-16T01:09:22.375Z,94.43
2022-11-16T01:09:42.430Z,94.49
2022-11-16T01:10:02.472Z,94.54
2022-11-16T01:10:22.582Z,94.56
2022-11-16T01:10:42.592Z,94.51
2022-11-16T01:11:02.682Z,94.48
2022-11-16T01:11:22.747Z,94.43
2022-11-16T01:11:42.830Z,94.42
2022-11-16T01:12:02.905Z,94.51
2022-11-16T01:12:22.961Z,94.56
2022-11-16T01:12:42.997Z,94.65
2022-11-16T01:13:03.064Z,94.71
2022-11-16T01:13:23.111Z,94.71
2022-11-16T01:13:43.297Z,94.74
2022-11-16T01:14:03.226Z,94.75
2022-11-16T01:14:23.307Z,94.78
2022-11-16T01:14:43.382Z,94.8
2022-11-16T01:15:03.456Z,94.84
2022-11-16T01:15:23.527Z,94.89
2022-11-16T01:15:43.592Z,94.91
2022-11-16T01:16:03.654Z,94.91
2022-11-16T01:16:23.714Z,94.91
2022-11-16T01:16:43.791Z,94.89
2022-11-16T01:17:03.863Z,94.91
2022-11-16T01:17:23.950Z,94.89
2022-11-16T01:17:43.997Z,94.93
2022-11-16T01:18:04.058Z,94.94
2022-11-16T01:18:24.126Z,94.91
2022-11-16T01:18:44.321Z,94.89
2022-11-16T01:19:04.264Z,94.9
2022-11-16T01:19:24.327Z,94.85
2022-11-16T01:19:44.388Z,94.82
2022-11-16T01:20:04.456Z,94.79
2022-11-16T01:20:24.542Z,94.82
2022-11-16T01:20:44.644Z,94.79
2022-11-16T01:21:04.689Z,94.79
2022-11-16T01:21:24.745Z,94.81
2022-11-16T01:21:44.829Z,94.82
2022-11-16T01:22:04.870Z,94.82
2022-11-16T01:22:24.957Z,94.77
2022-11-16T01:22:45.049Z,94.74
2022-11-16T01:23:05.083Z,94.77
2022-11-16T01:23:25.133Z,94.79
2022-11-16T01:23:45.384Z,94.79
2022-11-16T01:24:05.267Z,94.77
2022-11-16T01:24:25.321Z,94.8
2022-11-16T01:24:45.391Z,94.85
2022-11-16T01:25:05.445Z,94.89
2022-11-16T01:25:25.509Z,94.85
2022-11-16T01:25:45.584Z,94.84
2022-11-16T01:26:05.713Z,94.83
2022-11-16T01:26:25.694Z,94.83
2022-11-16T01:26:45.771Z,94.85
2022-11-16T01:27:05.814Z,94.83
2022-11-16T01:27:25.880Z,94.75
2022-11-16T01:27:45.944Z,94.78
2022-11-16T01:28:06.007Z,94.72
2022-11-16T01:28:26.065Z,94.76
2022-11-16T01:28:46.307Z,94.76
2022-11-16T01:29:06.159Z,94.73
2022-11-16T01:29:26.225Z,94.76
2022-11-16T01:29:46.302Z,94.78
2022-11-16T01:30:06.517Z,94.82
2022-11-16T01:30:26.484Z,94.81
2022-11-16T01:30:46.542Z,94.87
2022-11-16T01:31:06.610Z,94.86
2022-11-16T01:31:26.642Z,94.88
2022-11-16T01:31:46.689Z,94.9
2022-11-16T01:32:06.765Z,94.95
2022-11-16T01:32:26.841Z,94.98
2022-11-16T01:32:46.918Z,94.98
2022-11-16T01:33:07.007Z,95
2022-11-16T01:33:27.096Z,95.03
2022-11-16T01:33:47.384Z,95.02
2022-11-16T01:34:07.211Z,95.05
2022-11-16T01:34:27.288Z,95.07
2022-11-16T01:34:47.378Z,95.08
2022-11-16T01:35:07.491Z,95.08
2022-11-16T01:35:27.571Z,95.13
2022-11-16T01:35:47.638Z,95.18
2022-11-16T01:36:07.688Z,95.26
2022-11-16T01:36:27.760Z,95.28
2022-11-16T01:36:47.815Z,95.27
2022-11-16T01:37:07.866Z,95.33
2022-11-16T01:37:27.947Z,95.38
2022-11-16T01:37:48.011Z,95.38
2022-11-16T01:38:08.061Z,95.39
2022-11-16T01:38:29.981Z,95.4
2022-11-16T01:38:48.380Z,95.4
2022-11-16T01:39:08.258Z,95.45
2022-11-16T01:39:28.367Z,95.44
2022-11-16T01:39:48.408Z,95.45
2022-11-16T01:40:08.473Z,95.46
2022-11-16T01:40:28.533Z,95.48
2022-11-16T01:40:48.568Z,95.51
2022-11-16T01:41:08.666Z,95.5
2022-11-16T01:41:28.726Z,95.51
2022-11-16T01:41:48.773Z,95.56
2022-11-16T01:42:08.862Z,95.59
2022-11-16T01:42:28.922Z,95.56
2022-11-16T01:42:49.024Z,95.55
2022-11-16T01:43:09.070Z,95.59
2022-11-16T01:43:29.123Z,95.56
2022-11-16T01:43:49.380Z,95.56
2022-11-16T01:44:09.228Z,95.57
2022-11-16T01:44:29.297Z,95.56
2022-11-16T01:44:49.353Z,95.56
2022-11-16T01:45:09.392Z,95.57
2022-11-16T01:45:29.483Z,95.6
2022-11-16T01:45:49.545Z,95.64
2022-11-16T01:46:09.585Z,95.61
2022-11-16T01:46:29.674Z,95.64
2022-11-16T01:46:49.734Z,95.62
2022-11-16T01:47:09.758Z,95.66
2022-11-16T01:47:29.820Z,95.65
2022-11-16T01:47:49.974Z,95.66
2022-11-16T01:48:09.980Z,95.65
2022-11-16T01:48:30.095Z,95.67
2022-11-16T01:48:50.270Z,95.63
2022-11-16T01:49:10.123Z,95.63
2022-11-16T01:49:30.185Z,95.63
2022-11-16T01:49:50.247Z,95.63
2022-11-16T01:50:10.300Z,95.62
2022-11-16T01:50:30.378Z,95.64
2022-11-16T01:50:50.473Z,95.66
2022-11-16T01:51:10.532Z,95.66
2022-11-16T01:51:30.608Z,95.68
2022-11-16T01:51:50.699Z,95.71
2022-11-16T01:52:10.757Z,95.69
2022-11-16T01:52:30.806Z,95.72
2022-11-16T01:52:50.896Z,95.71
2022-11-16T01:53:10.959Z,95.72
2022-11-16T01:53:31.022Z,95.71
2022-11-16T01:53:51.239Z,95.73
2022-11-16T01:54:11.111Z,95.72
2022-11-16T01:54:31.208Z,95.75
2022-11-16T01:54:51.238Z,95.75
2022-11-16T01:55:11.280Z,95.73
2022-11-16T01:55:31.389Z,95.74
2022-11-16T01:55:51.458Z,95.78
2022-11-16T01:56:11.550Z,95.79
2022-11-16T01:56:31.602Z,95.8
2022-11-16T01:56:51.678Z,95.74
2022-11-16T01:57:11.772Z,95.81
2022-11-16T01:57:31.824Z,95.8
2022-11-16T01:57:51.875Z,95.82
2022-11-16T01:58:11.941Z,95.85
2022-11-16T01:58:32.378Z,95.83
2022-11-16T01:58:52.299Z,95.83
2022-11-16T01:59:12.142Z,95.77
2022-11-16T01:59:32.200Z,95.77
2022-11-16T01:59:52.258Z,95.78
2022-11-16T02:00:12.361Z,95.78
2022-11-16T02:00:32.409Z,95.82
2022-11-16T02:00:52.589Z,95.87
2022-11-16T02:01:12.645Z,95.93
2022-11-16T02:01:32.722Z,95.93
2022-11-16T02:01:52.738Z,95.93
2022-11-16T02:02:12.798Z,95.94
2022-11-16T02:02:32.858Z,96.01
2022-11-16T02:02:52.919Z,96
2022-11-16T02:03:13.011Z,96.02
2022-11-16T02:03:33.073Z,96.04
2022-11-16T02:03:53.232Z,96.07
2022-11-16T02:04:13.232Z,96.12
2022-11-16T02:04:33.295Z,96.12
2022-11-16T02:04:53.394Z,96.15
2022-11-16T02:05:13.457Z,96.18
2022-11-16T02:05:33.520Z,96.18
2022-11-16T02:05:53.582Z,96.23
2022-11-16T02:06:13.639Z,96.25
2022-11-16T02:06:33.696Z,96.29
2022-11-16T02:06:53.819Z,96.29
2022-11-16T02:07:13.916Z,96.35
2022-11-16T02:07:33.980Z,96.37
2022-11-16T02:07:53.946Z,96.41
2022-11-16T02:08:14.019Z,96.46
2022-11-16T02:08:34.390Z,96.48
2022-11-16T02:08:54.331Z,96.55
2022-11-16T02:09:14.306Z,96.59
2022-11-16T02:09:34.324Z,96.63
2022-11-16T02:09:54.399Z,96.6
2022-11-16T02:10:14.503Z,96.65
2022-11-16T02:10:34.563Z,96.66
2022-11-16T02:10:54.668Z,96.68
2022-11-16T02:11:14.748Z,96.68
2022-11-16T02:11:34.823Z,96.71
2022-11-16T02:11:54.914Z,96.71
2022-11-16T02:12:14.998Z,96.75
2022-11-16T02:12:35.068Z,96.74
2022-11-16T02:12:55.144Z,96.76
2022-11-16T02:13:15.212Z,96.75
2022-11-16T02:13:35.297Z,96.75
2022-11-16T02:13:55.542Z,96.76
2022-11-16T02:14:15.450Z,96.81
2022-11-16T02:14:35.528Z,96.78
2022-11-16T02:14:55.680Z,96.77
2022-11-16T02:15:15.672Z,96.79
2022-11-16T02:15:35.725Z,96.82
2022-11-16T02:15:55.776Z,96.81
2022-11-16T02:16:15.858Z,96.86
2022-11-16T02:16:35.949Z,96.87
2022-11-16T02:16:56.022Z,96.88
2022-11-16T02:17:16.106Z,96.89
2022-11-16T02:17:36.172Z,96.89
2022-11-16T02:17:56.258Z,96.91
2022-11-16T02:18:16.365Z,96.91
2022-11-16T02:18:36.727Z,96.94
2022-11-16T02:18:56.596Z,96.96
2022-11-16T02:19:16.600Z,96.95
2022-11-16T02:19:36.619Z,97.02
2022-11-16T02:19:56.700Z,97
2022-11-16T02:20:16.816Z,97.01
2022-11-16T02:20:36.850Z,97.01
2022-11-16T02:20:56.940Z,96.99
2022-11-16T02:21:17.012Z,96.99
2022-11-16T02:21:37.084Z,96.99
2022-11-16T02:21:57.173Z,96.98
2022-11-16T02:22:17.266Z,97.02
2022-11-16T02:22:37.347Z,97.02
2022-11-16T02:22:57.445Z,96.98
2022-11-16T02:23:17.510Z,96.99
2022-11-16T02:23:37.622Z,96.96
2022-11-16T02:23:57.881Z,96.96
2022-11-16T02:24:17.740Z,97.03
2022-11-16T02:24:37.820Z,96.99
2022-11-16T02:24:57.887Z,96.96
2022-11-16T02:25:17.976Z,96.94
2022-11-16T02:25:38.043Z,96.92
2022-11-16T02:25:58.157Z,96.94
2022-11-16T02:26:18.219Z,96.9
2022-11-16T02:26:38.289Z,96.92
2022-11-16T02:26:58.368Z,96.95
2022-11-16T02:27:18.434Z,96.92
2022-11-16T02:27:38.492Z,96.94
2022-11-16T02:27:58.561Z,96.96
2022-11-16T02:28:18.659Z,96.93
2022-11-16T02:28:38.725Z,96.96
2022-11-16T02:28:58.991Z,96.98
2022-11-16T02:29:18.830Z,96.97
2022-11-16T02:29:38.889Z,96.96
2022-11-16T02:29:58.963Z,96.99
2022-11-16T02:30:19.044Z,96.94
2022-11-16T02:30:39.105Z,96.95
2022-11-16T02:30:59.198Z,96.93
2022-11-16T02:31:19.259Z,96.93
2022-11-16T02:31:39.314Z,96.88
2022-11-16T02:31:59.383Z,96.96
2022-11-16T02:32:19.453Z,96.9
2022-11-16T02:32:39.521Z,96.94
2022-11-16T02:32:59.583Z,96.91
2022-11-16T02:33:19.654Z,96.89
2022-11-16T02:33:39.742Z,96.86
2022-11-16T02:34:00.053Z,96.84
2022-11-16T02:34:19.896Z,96.83
2022-11-16T02:34:39.983Z,96.85
2022-11-16T02:35:00.029Z,96.86
2022-11-16T02:35:20.106Z,96.85
2022-11-16T02:35:40.168Z,96.82
2022-11-16T02:36:00.242Z,96.79
2022-11-16T02:36:20.415Z,96.81
2022-11-16T02:36:40.370Z,96.81
2022-11-16T02:37:00.457Z,96.8
2022-11-16T02:37:20.534Z,96.79
2022-11-16T02:37:40.628Z,96.8
2022-11-16T02:38:00.732Z,96.79
2022-11-16T02:38:20.811Z,96.78
2022-11-16T02:38:40.864Z,96.76
2022-11-16T02:39:01.102Z,96.78
2022-11-16T02:39:20.960Z,96.8
2022-11-16T02:39:41.058Z,96.78
2022-11-16T02:40:01.114Z,96.78
2022-11-16T02:40:21.194Z,96.78
2022-11-16T02:40:41.249Z,96.8
2022-11-16T02:41:01.324Z,96.83
2022-11-16T02:41:21.413Z,96.81
2022-11-16T02:41:41.497Z,96.86
2022-11-16T02:42:01.615Z,96.83
2022-11-16T02:42:21.689Z,96.82
2022-11-16T02:42:41.828Z,96.83
2022-11-16T02:43:01.824Z,96.85
2022-11-16T02:43:21.911Z,96.87
2022-11-16T02:43:41.986Z,96.91
2022-11-16T02:44:02.175Z,96.91
2022-11-16T02:44:22.114Z,96.91
2022-11-16T02:44:42.186Z,96.89
2022-11-16T02:45:02.211Z,96.88
2022-11-16T02:45:22.270Z,96.84
2022-11-16T02:45:42.352Z,96.9
2022-11-16T02:46:02.439Z,96.86
2022-11-16T02:46:22.530Z,96.87
2022-11-16T02:46:42.595Z,96.88
2022-11-16T02:47:02.651Z,96.86
2022-11-16T02:47:22.809Z,96.85
2022-11-16T02:47:42.804Z,96.87
2022-11-16T02:48:02.871Z,96.86
2022-11-16T02:48:22.963Z,96.87
2022-11-16T02:48:43.039Z,96.88
2022-11-16T02:49:03.227Z,96.89
2022-11-16T02:49:23.254Z,96.88
2022-11-16T02:49:43.253Z,96.85
2022-11-16T02:50:03.334Z,96.86
2022-11-16T02:50:23.401Z,96.86
2022-11-16T02:50:43.494Z,96.89
2022-11-16T02:51:03.600Z,96.87
2022-11-16T02:51:23.649Z,96.85
2022-11-16T02:51:43.732Z,96.84
2022-11-16T02:52:03.795Z,96.84
2022-11-16T02:52:23.869Z,96.85
2022-11-16T02:52:43.932Z,96.84
2022-11-16T02:53:03.999Z,96.81
2022-11-16T02:53:24.069Z,96.81
2022-11-16T02:53:44.166Z,96.79
2022-11-16T02:54:04.437Z,96.78
2022-11-16T02:54:24.272Z,96.78
2022-11-16T02:54:44.353Z,96.76
2022-11-16T02:55:04.409Z,96.75
2022-11-16T02:55:24.507Z,96.77
2022-11-16T02:55:44.572Z,96.83
2022-11-16T02:56:04.651Z,96.77
2022-11-16T02:56:24.699Z,96.8
2022-11-16T02:56:44.773Z,96.79
2022-11-16T02:57:04.847Z,96.78
2022-11-16T02:57:24.917Z,96.79
2022-11-16T02:57:44.994Z,96.79
2022-11-16T02:58:05.065Z,96.81
2022-11-16T02:58:25.120Z,96.84
2022-11-16T02:58:45.199Z,96.78
2022-11-16T02:59:05.474Z,96.83
2022-11-16T02:59:25.347Z,96.83
2022-11-16T02:59:45.391Z,96.85
2022-11-16T03:00:05.484Z,96.86
2022-11-16T03:00:25.603Z,96.86
2022-11-16T03:00:45.732Z,96.85
2022-11-16T03:01:05.862Z,96.86
2022-11-16T03:01:25.977Z,96.85
2022-11-16T03:01:45.918Z,96.86
2022-11-16T03:02:06.006Z,96.86
2022-11-16T03:02:26.061Z,96.9
2022-11-16T03:02:46.130Z,96.88
2022-11-16T03:03:06.260Z,96.88
2022-11-16T03:03:26.358Z,96.9
2022-11-16T03:03:46.427Z,96.89
2022-11-16T03:04:06.608Z,96.9
2022-11-16T03:04:26.556Z,96.91
2022-11-16T03:04:46.629Z,96.95
2022-11-16T03:05:06.692Z,96.91
2022-11-16T03:05:26.776Z,96.92
2022-11-16T03:05:46.843Z,96.89
2022-11-16T03:06:06.885Z,96.95
2022-11-16T03:06:26.927Z,96.91
2022-11-16T03:06:47.078Z,96.9
2022-11-16T03:07:07.102Z,96.89
2022-11-16T03:07:27.232Z,96.91
2022-11-16T03:07:47.241Z,96.89
2022-11-16T03:08:07.312Z,96.87
2022-11-16T03:08:27.444Z,96.87
2022-11-16T03:08:47.462Z,96.87
2022-11-16T03:09:07.658Z,96.84
2022-11-16T03:09:27.617Z,96.89
2022-11-16T03:09:47.685Z,96.87
2022-11-16T03:10:07.771Z,96.81
2022-11-16T03:10:27.830Z,96.83
2022-11-16T03:10:47.908Z,96.84
2022-11-16T03:11:07.980Z,96.84
2022-11-16T03:11:28.111Z,96.82
2022-11-16T03:11:48.150Z,96.81
2022-11-16T03:12:08.237Z,96.81
2022-11-16T03:12:28.311Z,96.83
2022-11-16T03:12:48.370Z,96.88
2022-11-16T03:13:08.474Z,96.87
2022-11-16T03:13:28.561Z,96.89
2022-11-16T03:13:48.626Z,96.88
2022-11-16T03:14:08.872Z,96.86
2022-11-16T03:14:28.835Z,96.87
2022-11-16T03:14:48.918Z,96.87
2022-11-16T03:15:09.012Z,96.88
2022-11-16T03:15:29.103Z,96.89
2022-11-16T03:15:49.201Z,96.88
2022-11-16T03:16:09.252Z,96.84
2022-11-16T03:16:29.340Z,96.85
2022-11-16T03:16:49.393Z,96.83
2022-11-16T03:17:09.497Z,96.86
2022-11-16T03:17:29.571Z,96.92
2022-11-16T03:17:49.621Z,96.88
2022-11-16T03:18:09.689Z,96.87
2022-11-16T03:18:29.744Z,96.88
2022-11-16T03:18:49.823Z,96.87
2022-11-16T03:19:10.007Z,96.89
2022-11-16T03:19:29.957Z,96.86
2022-11-16T03:19:50.021Z,96.89
2022-11-16T03:20:10.075Z,96.89
2022-11-16T03:20:30.141Z,96.9
2022-11-16T03:20:50.215Z,96.89
2022-11-16T03:21:10.273Z,96.9
2022-11-16T03:21:30.337Z,96.92
2022-11-16T03:21:50.391Z,96.89
2022-11-16T03:22:10.493Z,96.9
2022-11-16T03:22:30.570Z,96.9
2022-11-16T03:22:50.636Z,96.92
2022-11-16T03:23:10.699Z,96.89
2022-11-16T03:23:30.771Z,96.92
2022-11-16T03:23:50.812Z,96.9
2022-11-16T03:24:11.065Z,96.91
2022-11-16T03:24:30.936Z,96.92
2022-11-16T03:24:50.979Z,96.87
2022-11-16T03:25:11.053Z,96.89
2022-11-16T03:25:31.173Z,96.88
2022-11-16T03:25:51.182Z,96.86
2022-11-16T03:26:11.239Z,96.9
2022-11-16T03:26:31.304Z,96.85
2022-11-16T03:26:51.380Z,96.88
2022-11-16T03:27:11.414Z,96.9
2022-11-16T03:27:31.498Z,96.89
2022-11-16T03:27:51.587Z,96.9
2022-11-16T03:28:11.633Z,96.89
2022-11-16T03:28:32.024Z,96.91
2022-11-16T03:28:51.796Z,96.92
2022-11-16T03:29:12.013Z,96.92
2022-11-16T03:29:31.903Z,96.93
2022-11-16T03:29:51.964Z,96.94
2022-11-16T03:30:12.068Z,96.94
2022-11-16T03:30:32.136Z,96.94
2022-11-16T03:30:52.192Z,96.99
2022-11-16T03:31:12.258Z,96.95
2022-11-16T03:31:32.326Z,96.95
2022-11-16T03:31:52.408Z,97
2022-11-16T03:32:12.478Z,96.98
2022-11-16T03:32:32.552Z,97
2022-11-16T03:32:52.608Z,97
2022-11-16T03:33:12.645Z,97.03
2022-11-16T03:33:32.721Z,97.03
2022-11-16T03:33:52.784Z,97.05
2022-11-16T03:34:13.067Z,97.04
2022-11-16T03:34:32.945Z,97.01
2022-11-16T03:34:52.939Z,97.05
2022-11-16T03:35:13.009Z,97.04
2022-11-16T03:35:33.078Z,97.06
2022-11-16T03:35:53.122Z,97.06
2022-11-16T03:36:13.209Z,97.03
2022-11-16T03:36:33.282Z,97.03
2022-11-16T03:36:53.391Z,97.01
2022-11-16T03:37:13.457Z,97
2022-11-16T03:37:33.543Z,96.97
2022-11-16T03:37:53.604Z,97
2022-11-16T03:38:13.684Z,97
2022-11-16T03:38:34.135Z,97.02
2022-11-16T03:38:53.807Z,96.97
2022-11-16T03:39:14.220Z,97
2022-11-16T03:39:33.949Z,96.97
2022-11-16T03:39:54.043Z,96.99
2022-11-16T03:40:14.091Z,96.97
2022-11-16T03:40:34.171Z,96.99
2022-11-16T03:40:54.241Z,96.97
2022-11-16T03:41:14.294Z,96.97
2022-11-16T03:41:34.376Z,96.96
2022-11-16T03:41:54.406Z,96.89
2022-11-16T03:42:14.638Z,96.82
2022-11-16T03:42:34.540Z,96.81
2022-11-16T03:42:54.619Z,96.76
2022-11-16T03:43:14.713Z,96.76
2022-11-16T03:43:34.773Z,96.7
2022-11-16T03:43:54.823Z,96.71
2022-11-16T03:44:15.092Z,96.65
2022-11-16T03:44:34.992Z,96.58
2022-11-16T03:44:55.055Z,96.56
2022-11-16T03:45:15.196Z,96.6
2022-11-16T03:45:35.185Z,96.62
2022-11-16T03:45:55.230Z,96.55
2022-11-16T03:46:15.281Z,96.58
2022-11-16T03:46:35.363Z,96.58
2022-11-16T03:46:55.419Z,96.57
2022-11-16T03:47:15.485Z,96.59
2022-11-16T03:47:35.561Z,96.56
2022-11-16T03:47:55.644Z,96.5
2022-11-16T03:48:15.700Z,96.52
2022-11-16T03:48:36.236Z,96.45
2022-11-16T03:48:55.841Z,96.41
2022-11-16T03:49:16.013Z,96.33
2022-11-16T03:49:35.997Z,96.25
2022-11-16T03:49:56.061Z,96.17
2022-11-16T03:50:16.095Z,96.11
2022-11-16T03:50:36.188Z,96.1
2022-11-16T03:50:56.217Z,96.04
2022-11-16T03:51:16.288Z,96.07
2022-11-16T03:51:36.363Z,96.05
2022-11-16T03:51:56.429Z,96.06
2022-11-16T03:52:16.502Z,96.07
2022-11-16T03:52:36.571Z,96.11
2022-11-16T03:52:56.660Z,96.14
2022-11-16T03:53:16.753Z,96.14
2022-11-16T03:53:36.787Z,96.1
2022-11-16T03:53:56.878Z,96.06
2022-11-16T03:54:17.050Z,96.05
2022-11-16T03:54:37.022Z,96.07
2022-11-16T03:54:57.090Z,96.15
2022-11-16T03:55:17.170Z,96.13
2022-11-16T03:55:37.233Z,96.15
2022-11-16T03:55:57.336Z,96.23
2022-11-16T03:56:17.413Z,96.25
2022-11-16T03:56:37.484Z,96.28
2022-11-16T03:56:57.567Z,96.26
2022-11-16T03:57:17.647Z,96.27
2022-11-16T03:57:37.712Z,96.32
2022-11-16T03:57:57.814Z,96.32
2022-11-16T03:58:17.906Z,96.37
2022-11-16T03:58:37.963Z,96.37
2022-11-16T03:58:58.054Z,96.43
2022-11-16T03:59:18.241Z,96.4
2022-11-16T03:59:38.202Z,96.43
2022-11-16T03:59:58.282Z,96.45
2022-11-16T04:00:18.366Z,96.41
2022-11-16T04:00:38.468Z,96.44
2022-11-16T04:00:58.655Z,96.45
2022-11-16T04:01:18.608Z,96.44
2022-11-16T04:01:43.380Z,96.49
2022-11-16T04:01:58.717Z,96.46
2022-11-16T04:02:18.792Z,96.46
2022-11-16T04:02:38.890Z,96.4
2022-11-16T04:02:58.940Z,96.4
2022-11-16T04:03:19.005Z,96.36
2022-11-16T04:03:39.078Z,96.34
2022-11-16T04:03:59.132Z,96.32
2022-11-16T04:04:19.384Z,96.35
2022-11-16T04:04:39.289Z,96.3
2022-11-16T04:04:59.353Z,96.32
2022-11-16T04:05:19.409Z,96.33
2022-11-16T04:05:39.498Z,96.31
2022-11-16T04:05:59.547Z,96.33
2022-11-16T04:06:19.609Z,96.35
2022-11-16T04:06:39.678Z,96.36
2022-11-16T04:06:59.759Z,96.36
2022-11-16T04:07:19.855Z,96.37
2022-11-16T04:07:39.850Z,96.35
2022-11-16T04:07:59.929Z,96.36
2022-11-16T04:08:19.993Z,96.37
2022-11-16T04:08:40.043Z,96.38
2022-11-16T04:09:00.099Z,96.39
2022-11-16T04:09:20.309Z,96.29
2022-11-16T04:09:40.263Z,96.31
2022-11-16T04:10:00.328Z,96.28
2022-11-16T04:10:20.423Z,96.27
2022-11-16T04:10:40.496Z,96.28
2022-11-16T04:11:00.609Z,96.32
2022-11-16T04:11:20.648Z,96.32
2022-11-16T04:11:40.721Z,96.32
2022-11-16T04:12:00.764Z,96.3
2022-11-16T04:12:20.845Z,96.27
2022-11-16T04:12:40.900Z,96.27
2022-11-16T04:13:00.963Z,96.29
2022-11-16T04:13:21.024Z,96.28
2022-11-16T04:13:41.089Z,96.29
2022-11-16T04:14:04.149Z,96.26
2022-11-16T04:14:21.318Z,96.21
2022-11-16T04:14:41.247Z,96.19
2022-11-16T04:15:01.310Z,96.14
2022-11-16T04:15:21.422Z,96.12
2022-11-16T04:15:41.476Z,96.11
2022-11-16T04:16:01.520Z,96.11
2022-11-16T04:16:21.569Z,96.09
2022-11-16T04:16:41.638Z,96.07
2022-11-16T04:17:01.687Z,96.11
2022-11-16T04:17:21.763Z,96.11
2022-11-16T04:17:41.841Z,96.06
2022-11-16T04:18:01.923Z,96.07
2022-11-16T04:18:21.970Z,96.07
2022-11-16T04:18:42.071Z,96.07
2022-11-16T04:19:02.149Z,96.1
2022-11-16T04:19:22.321Z,96.08
2022-11-16T04:19:42.307Z,96.1